Austin, Texas
Traffic Map
Current Weather Conditions
Austin, Texas
Clear
Clear
75°
Feels Like: 75°
Wind Chill: 75° Ceiling: Unl
Heat Index: 75° Visibility: 8mi
Dew Point: 73° Wind: 3mph
Humidity: 94% Direction: 130° (SE)
Pressure: 30.02in Gusts: 0mph
Raw Report DataKATT 010151Z AUTO 13003KT 8SM CLR 24/23 A3002 RMK AO2 SLP154 T02390228
Traffic Incident Summary
Active as of:
Severity:
Category:
InformationThere was an issue retrieving the traffic information for this location. Please try a different location or try again shortly.
Advertisements
Track Severe Weather on mobile